sensor_id;sensor_type;location;lat;lon;timestamp;P1;durP1;ratioP1;P2;durP2;ratioP2
21593;SDS011;10959;51.328;7.322;2022-08-05T00:01:40;2.72;;;1.83;;
21593;SDS011;10959;51.328;7.322;2022-08-05T00:04:06;3.00;;;2.15;;
21593;SDS011;10959;51.328;7.322;2022-08-05T00:06:33;4.65;;;2.22;;
21593;SDS011;10959;51.328;7.322;2022-08-05T00:09:00;4.18;;;2.63;;
21593;SDS011;10959;51.328;7.322;2022-08-05T00:11:27;2.08;;;1.70;;
21593;SDS011;10959;51.328;7.322;2022-08-05T00:13:53;3.63;;;2.35;;
21593;SDS011;10959;51.328;7.322;2022-08-05T00:16:22;5.93;;;2.45;;
21593;SDS011;10959;51.328;7.322;2022-08-05T00:18:48;3.10;;;2.70;;
21593;SDS011;10959;51.328;7.322;2022-08-05T00:21:15;4.63;;;3.03;;
21593;SDS011;10959;51.328;7.322;2022-08-05T00:23:43;3.15;;;2.03;;
21593;SDS011;10959;51.328;7.322;2022-08-05T00:26:11;5.35;;;2.70;;
21593;SDS011;10959;51.328;7.322;2022-08-05T00:28:38;3.15;;;2.78;;
21593;SDS011;10959;51.328;7.322;2022-08-05T00:31:05;4.65;;;2.85;;
21593;SDS011;10959;51.328;7.322;2022-08-05T00:33:33;6.43;;;2.80;;
21593;SDS011;10959;51.328;7.322;2022-08-05T00:36:00;3.00;;;2.47;;
21593;SDS011;10959;51.328;7.322;2022-08-05T00:38:27;5.78;;;2.92;;
21593;SDS011;10959;51.328;7.322;2022-08-05T00:40:54;4.38;;;2.78;;
21593;SDS011;10959;51.328;7.322;2022-08-05T00:43:22;4.65;;;2.40;;
21593;SDS011;10959;51.328;7.322;2022-08-05T00:45:48;4.68;;;2.10;;
21593;SDS011;10959;51.328;7.322;2022-08-05T00:48:16;3.53;;;2.30;;
21593;SDS011;10959;51.328;7.322;2022-08-05T00:50:46;3.28;;;2.50;;
21593;SDS011;10959;51.328;7.322;2022-08-05T00:53:15;4.53;;;2.80;;
21593;SDS011;10959;51.328;7.322;2022-08-05T00:55:43;4.22;;;2.60;;
21593;SDS011;10959;51.328;7.322;2022-08-05T00:58:09;2.83;;;2.50;;
21593;SDS011;10959;51.328;7.322;2022-08-05T01:00:36;3.75;;;2.47;;
21593;SDS011;10959;51.328;7.322;2022-08-05T01:03:03;2.75;;;2.38;;
21593;SDS011;10959;51.328;7.322;2022-08-05T01:05:30;5.63;;;2.83;;
21593;SDS011;10959;51.328;7.322;2022-08-05T01:07:58;3.65;;;2.63;;
21593;SDS011;10959;51.328;7.322;2022-08-05T01:10:26;5.53;;;2.83;;
21593;SDS011;10959;51.328;7.322;2022-08-05T01:12:57;4.78;;;2.33;;
21593;SDS011;10959;51.328;7.322;2022-08-05T01:15:33;4.43;;;2.60;;
21593;SDS011;10959;51.328;7.322;2022-08-05T01:18:05;2.83;;;1.92;;
21593;SDS011;10959;51.328;7.322;2022-08-05T01:20:39;3.42;;;2.17;;
21593;SDS011;10959;51.328;7.322;2022-08-05T01:23:18;2.55;;;2.13;;
21593;SDS011;10959;51.328;7.322;2022-08-05T01:26:01;5.93;;;2.58;;
21593;SDS011;10959;51.328;7.322;2022-08-05T01:28:45;5.63;;;2.58;;
21593;SDS011;10959;51.328;7.322;2022-08-05T01:31:19;3.72;;;2.08;;
21593;SDS011;10959;51.328;7.322;2022-08-05T01:33:53;4.13;;;2.50;;
21593;SDS011;10959;51.328;7.322;2022-08-05T01:36:25;3.65;;;2.45;;
21593;SDS011;10959;51.328;7.322;2022-08-05T01:38:57;4.07;;;2.58;;
21593;SDS011;10959;51.328;7.322;2022-08-05T01:41:24;2.95;;;2.65;;
21593;SDS011;10959;51.328;7.322;2022-08-05T01:43:55;3.55;;;2.30;;
21593;SDS011;10959;51.328;7.322;2022-08-05T01:46:23;5.30;;;2.63;;
21593;SDS011;10959;51.328;7.322;2022-08-05T01:48:51;2.97;;;2.10;;
21593;SDS011;10959;51.328;7.322;2022-08-05T01:51:19;3.10;;;2.55;;
21593;SDS011;10959;51.328;7.322;2022-08-05T01:53:49;3.33;;;2.30;;
21593;SDS011;10959;51.328;7.322;2022-08-05T01:56:17;6.35;;;2.25;;
21593;SDS011;10959;51.328;7.322;2022-08-05T01:58:45;3.78;;;2.22;;
21593;SDS011;10959;51.328;7.322;2022-08-05T02:01:17;6.03;;;2.67;;
21593;SDS011;10959;51.328;7.322;2022-08-05T02:03:45;3.15;;;2.47;;
21593;SDS011;10959;51.328;7.322;2022-08-05T02:06:13;3.10;;;2.30;;
21593;SDS011;10959;51.328;7.322;2022-08-05T02:08:41;4.60;;;2.75;;
21593;SDS011;10959;51.328;7.322;2022-08-05T02:11:09;4.55;;;2.42;;
21593;SDS011;10959;51.328;7.322;2022-08-05T02:13:39;4.65;;;2.20;;
21593;SDS011;10959;51.328;7.322;2022-08-05T02:16:18;4.05;;;2.33;;
21593;SDS011;10959;51.328;7.322;2022-08-05T02:18:48;2.72;;;2.25;;
21593;SDS011;10959;51.328;7.322;2022-08-05T02:21:18;3.38;;;2.33;;
21593;SDS011;10959;51.328;7.322;2022-08-05T02:23:51;3.63;;;1.60;;
21593;SDS011;10959;51.328;7.322;2022-08-05T02:26:22;3.35;;;2.20;;
21593;SDS011;10959;51.328;7.322;2022-08-05T02:28:51;3.08;;;1.95;;
21593;SDS011;10959;51.328;7.322;2022-08-05T02:31:21;3.65;;;2.17;;
21593;SDS011;10959;51.328;7.322;2022-08-05T02:33:53;3.17;;;1.80;;
21593;SDS011;10959;51.328;7.322;2022-08-05T02:36:23;4.15;;;1.95;;
21593;SDS011;10959;51.328;7.322;2022-08-05T02:38:51;3.03;;;1.70;;
21593;SDS011;10959;51.328;7.322;2022-08-05T02:41:21;3.05;;;2.03;;
21593;SDS011;10959;51.328;7.322;2022-08-05T02:43:50;5.07;;;2.47;;
21593;SDS011;10959;51.328;7.322;2022-08-05T02:46:17;4.05;;;2.35;;
21593;SDS011;10959;51.328;7.322;2022-08-05T02:48:46;3.47;;;2.30;;
21593;SDS011;10959;51.328;7.322;2022-08-05T02:51:15;3.65;;;2.55;;
21593;SDS011;10959;51.328;7.322;2022-08-05T02:53:43;3.80;;;2.40;;
21593;SDS011;10959;51.328;7.322;2022-08-05T02:56:11;4.03;;;2.15;;
21593;SDS011;10959;51.328;7.322;2022-08-05T02:58:38;3.67;;;2.38;;
21593;SDS011;10959;51.328;7.322;2022-08-05T03:01:06;2.92;;;2.03;;
21593;SDS011;10959;51.328;7.322;2022-08-05T03:03:37;4.43;;;2.63;;
21593;SDS011;10959;51.328;7.322;2022-08-05T03:06:07;2.22;;;2.03;;
21593;SDS011;10959;51.328;7.322;2022-08-05T03:08:36;5.38;;;2.97;;
21593;SDS011;10959;51.328;7.322;2022-08-05T03:11:14;4.10;;;2.60;;
21593;SDS011;10959;51.328;7.322;2022-08-05T03:13:42;4.72;;;2.85;;
21593;SDS011;10959;51.328;7.322;2022-08-05T03:16:08;3.78;;;2.60;;
21593;SDS011;10959;51.328;7.322;2022-08-05T03:18:35;3.42;;;2.50;;
21593;SDS011;10959;51.328;7.322;2022-08-05T03:21:01;4.85;;;3.30;;
21593;SDS011;10959;51.328;7.322;2022-08-05T03:23:29;4.88;;;3.40;;
21593;SDS011;10959;51.328;7.322;2022-08-05T03:25:57;6.95;;;3.45;;
21593;SDS011;10959;51.328;7.322;2022-08-05T03:28:24;7.07;;;3.58;;
21593;SDS011;10959;51.328;7.322;2022-08-05T03:30:50;5.03;;;3.40;;
21593;SDS011;10959;51.328;7.322;2022-08-05T03:33:17;5.07;;;2.78;;
21593;SDS011;10959;51.328;7.322;2022-08-05T03:35:44;6.28;;;4.90;;
21593;SDS011;10959;51.328;7.322;2022-08-05T03:38:12;6.03;;;5.10;;
21593;SDS011;10959;51.328;7.322;2022-08-05T03:40:40;5.63;;;4.70;;
21593;SDS011;10959;51.328;7.322;2022-08-05T03:43:07;6.63;;;4.72;;
21593;SDS011;10959;51.328;7.322;2022-08-05T03:45:34;9.13;;;6.55;;
21593;SDS011;10959;51.328;7.322;2022-08-05T03:48:00;6.68;;;5.75;;
21593;SDS011;10959;51.328;7.322;2022-08-05T03:50:27;7.28;;;5.82;;
21593;SDS011;10959;51.328;7.322;2022-08-05T03:53:02;6.10;;;4.73;;
21593;SDS011;10959;51.328;7.322;2022-08-05T03:55:34;8.80;;;5.27;;
21593;SDS011;10959;51.328;7.322;2022-08-05T03:58:06;3.97;;;3.47;;
21593;SDS011;10959;51.328;7.322;2022-08-05T04:00:36;4.63;;;3.92;;
21593;SDS011;10959;51.328;7.322;2022-08-05T04:03:05;5.20;;;4.00;;
21593;SDS011;10959;51.328;7.322;2022-08-05T04:05:33;4.20;;;3.30;;
21593;SDS011;10959;51.328;7.322;2022-08-05T04:08:01;3.78;;;3.40;;
21593;SDS011;10959;51.328;7.322;2022-08-05T04:10:29;4.90;;;3.43;;
21593;SDS011;10959;51.328;7.322;2022-08-05T04:12:56;3.20;;;2.90;;
21593;SDS011;10959;51.328;7.322;2022-08-05T04:15:24;4.95;;;3.08;;
21593;SDS011;10959;51.328;7.322;2022-08-05T04:17:51;3.47;;;2.70;;
21593;SDS011;10959;51.328;7.322;2022-08-05T04:20:19;4.78;;;3.17;;
21593;SDS011;10959;51.328;7.322;2022-08-05T04:22:47;3.47;;;2.97;;
21593;SDS011;10959;51.328;7.322;2022-08-05T04:25:13;3.53;;;3.22;;
21593;SDS011;10959;51.328;7.322;2022-08-05T04:27:40;3.53;;;3.20;;
21593;SDS011;10959;51.328;7.322;2022-08-05T04:30:08;3.67;;;3.38;;
21593;SDS011;10959;51.328;7.322;2022-08-05T04:32:36;3.40;;;3.10;;
21593;SDS011;10959;51.328;7.322;2022-08-05T04:35:03;3.92;;;3.53;;
21593;SDS011;10959;51.328;7.322;2022-08-05T04:37:30;4.78;;;3.88;;
21593;SDS011;10959;51.328;7.322;2022-08-05T04:39:57;4.57;;;3.58;;
21593;SDS011;10959;51.328;7.322;2022-08-05T04:42:23;5.45;;;4.00;;
21593;SDS011;10959;51.328;7.322;2022-08-05T04:44:50;4.00;;;3.53;;
21593;SDS011;10959;51.328;7.322;2022-08-05T04:47:16;5.93;;;4.30;;
21593;SDS011;10959;51.328;7.322;2022-08-05T04:49:44;5.43;;;3.83;;
21593;SDS011;10959;51.328;7.322;2022-08-05T04:52:11;5.17;;;4.37;;
21593;SDS011;10959;51.328;7.322;2022-08-05T04:54:37;6.05;;;4.47;;
21593;SDS011;10959;51.328;7.322;2022-08-05T04:57:04;5.85;;;4.07;;
21593;SDS011;10959;51.328;7.322;2022-08-05T04:59:30;4.88;;;3.85;;
21593;SDS011;10959;51.328;7.322;2022-08-05T05:01:57;3.88;;;3.47;;
21593;SDS011;10959;51.328;7.322;2022-08-05T05:04:23;7.10;;;4.50;;
21593;SDS011;10959;51.328;7.322;2022-08-05T05:06:51;4.18;;;3.78;;
21593;SDS011;10959;51.328;7.322;2022-08-05T05:09:18;6.82;;;4.75;;
21593;SDS011;10959;51.328;7.322;2022-08-05T05:11:44;5.68;;;4.50;;
21593;SDS011;10959;51.328;7.322;2022-08-05T05:14:11;6.03;;;4.53;;
21593;SDS011;10959;51.328;7.322;2022-08-05T05:16:37;8.02;;;5.05;;
21593;SDS011;10959;51.328;7.322;2022-08-05T05:19:04;5.97;;;4.97;;
21593;SDS011;10959;51.328;7.322;2022-08-05T05:21:30;6.37;;;5.10;;
21593;SDS011;10959;51.328;7.322;2022-08-05T05:23:58;5.97;;;5.33;;
21593;SDS011;10959;51.328;7.322;2022-08-05T05:26:24;5.20;;;4.68;;
21593;SDS011;10959;51.328;7.322;2022-08-05T05:28:51;5.87;;;5.40;;
21593;SDS011;10959;51.328;7.322;2022-08-05T05:31:17;5.63;;;5.13;;
21593;SDS011;10959;51.328;7.322;2022-08-05T05:33:43;5.90;;;5.30;;
21593;SDS011;10959;51.328;7.322;2022-08-05T05:36:10;5.85;;;5.35;;
21593;SDS011;10959;51.328;7.322;2022-08-05T05:38:36;5.77;;;4.80;;
21593;SDS011;10959;51.328;7.322;2022-08-05T05:41:04;5.70;;;5.20;;
21593;SDS011;10959;51.328;7.322;2022-08-05T05:43:31;6.70;;;6.00;;
21593;SDS011;10959;51.328;7.322;2022-08-05T05:45:57;6.28;;;5.70;;
21593;SDS011;10959;51.328;7.322;2022-08-05T05:48:23;6.22;;;5.60;;
21593;SDS011;10959;51.328;7.322;2022-08-05T05:50:50;5.68;;;5.18;;
21593;SDS011;10959;51.328;7.322;2022-08-05T05:53:17;5.93;;;5.32;;
21593;SDS011;10959;51.328;7.322;2022-08-05T05:55:44;6.13;;;5.60;;
21593;SDS011;10959;51.328;7.322;2022-08-05T05:58:12;7.13;;;5.40;;
21593;SDS011;10959;51.328;7.322;2022-08-05T06:00:39;7.10;;;6.43;;
21593;SDS011;10959;51.328;7.322;2022-08-05T06:03:05;7.07;;;6.38;;
21593;SDS011;10959;51.328;7.322;2022-08-05T06:05:33;6.78;;;6.13;;
21593;SDS011;10959;51.328;7.322;2022-08-05T06:08:00;7.35;;;6.53;;
21593;SDS011;10959;51.328;7.322;2022-08-05T06:10:26;8.85;;;8.00;;
21593;SDS011;10959;51.328;7.322;2022-08-05T06:12:53;9.43;;;8.30;;
21593;SDS011;10959;51.328;7.322;2022-08-05T06:15:20;8.32;;;7.53;;
21593;SDS011;10959;51.328;7.322;2022-08-05T06:17:47;8.90;;;8.00;;
21593;SDS011;10959;51.328;7.322;2022-08-05T06:20:14;10.30;;;8.85;;
21593;SDS011;10959;51.328;7.322;2022-08-05T06:22:41;9.68;;;8.77;;
21593;SDS011;10959;51.328;7.322;2022-08-05T06:25:08;9.33;;;8.53;;
21593;SDS011;10959;51.328;7.322;2022-08-05T06:27:35;9.63;;;8.67;;
21593;SDS011;10959;51.328;7.322;2022-08-05T06:30:02;9.52;;;8.63;;
21593;SDS011;10959;51.328;7.322;2022-08-05T06:32:31;11.52;;;10.43;;
21593;SDS011;10959;51.328;7.322;2022-08-05T06:34:57;11.53;;;10.43;;
21593;SDS011;10959;51.328;7.322;2022-08-05T06:37:24;9.85;;;8.95;;
21593;SDS011;10959;51.328;7.322;2022-08-05T06:39:51;11.23;;;10.18;;
21593;SDS011;10959;51.328;7.322;2022-08-05T06:42:17;13.27;;;12.00;;
21593;SDS011;10959;51.328;7.322;2022-08-05T06:44:44;14.55;;;13.25;;
21593;SDS011;10959;51.328;7.322;2022-08-05T06:47:10;14.80;;;13.30;;
21593;SDS011;10959;51.328;7.322;2022-08-05T06:49:38;15.43;;;14.02;;
21593;SDS011;10959;51.328;7.322;2022-08-05T06:52:04;15.82;;;14.07;;
21593;SDS011;10959;51.328;7.322;2022-08-05T06:54:31;15.75;;;14.27;;
21593;SDS011;10959;51.328;7.322;2022-08-05T06:56:57;15.02;;;13.60;;
21593;SDS011;10959;51.328;7.322;2022-08-05T06:59:24;17.02;;;15.23;;
21593;SDS011;10959;51.328;7.322;2022-08-05T07:01:50;17.35;;;15.55;;
21593;SDS011;10959;51.328;7.322;2022-08-05T07:04:17;19.77;;;17.67;;
21593;SDS011;10959;51.328;7.322;2022-08-05T07:06:44;20.13;;;18.20;;
21593;SDS011;10959;51.328;7.322;2022-08-05T07:09:11;21.05;;;18.88;;
21593;SDS011;10959;51.328;7.322;2022-08-05T07:11:37;21.63;;;18.40;;
21593;SDS011;10959;51.328;7.322;2022-08-05T07:14:04;21.27;;;18.80;;
21593;SDS011;10959;51.328;7.322;2022-08-05T07:16:48;20.98;;;18.88;;
21593;SDS011;10959;51.328;7.322;2022-08-05T07:19:15;23.67;;;21.13;;
21593;SDS011;10959;51.328;7.322;2022-08-05T07:21:42;24.13;;;20.83;;
21593;SDS011;10959;51.328;7.322;2022-08-05T07:24:10;23.20;;;20.35;;
21593;SDS011;10959;51.328;7.322;2022-08-05T07:26:37;22.00;;;18.97;;
21593;SDS011;10959;51.328;7.322;2022-08-05T07:29:03;22.35;;;19.52;;
21593;SDS011;10959;51.328;7.322;2022-08-05T07:31:30;22.58;;;17.73;;
21593;SDS011;10959;51.328;7.322;2022-08-05T07:33:56;19.07;;;15.57;;
21593;SDS011;10959;51.328;7.322;2022-08-05T07:36:23;14.60;;;12.47;;
21593;SDS011;10959;51.328;7.322;2022-08-05T07:38:49;14.00;;;11.37;;
21593;SDS011;10959;51.328;7.322;2022-08-05T07:41:18;12.33;;;11.00;;
21593;SDS011;10959;51.328;7.322;2022-08-05T07:43:46;11.03;;;9.30;;
21593;SDS011;10959;51.328;7.322;2022-08-05T07:46:12;9.00;;;8.17;;
21593;SDS011;10959;51.328;7.322;2022-08-05T07:48:39;8.25;;;7.45;;
21593;SDS011;10959;51.328;7.322;2022-08-05T07:51:05;8.30;;;7.50;;
21593;SDS011;10959;51.328;7.322;2022-08-05T07:53:32;7.87;;;7.07;;
21593;SDS011;10959;51.328;7.322;2022-08-05T07:56:00;8.80;;;8.00;;
21593;SDS011;10959;51.328;7.322;2022-08-05T07:58:28;8.90;;;8.17;;
21593;SDS011;10959;51.328;7.322;2022-08-05T08:00:54;10.47;;;9.43;;
21593;SDS011;10959;51.328;7.322;2022-08-05T08:03:21;8.80;;;8.00;;
21593;SDS011;10959;51.328;7.322;2022-08-05T08:05:48;9.13;;;8.07;;
21593;SDS011;10959;51.328;7.322;2022-08-05T08:08:15;9.07;;;8.10;;
21593;SDS011;10959;51.328;7.322;2022-08-05T08:10:42;9.50;;;8.60;;
21593;SDS011;10959;51.328;7.322;2022-08-05T08:13:09;9.17;;;8.27;;
21593;SDS011;10959;51.328;7.322;2022-08-05T08:15:36;9.00;;;8.20;;
21593;SDS011;10959;51.328;7.322;2022-08-05T08:18:03;8.63;;;7.80;;
21593;SDS011;10959;51.328;7.322;2022-08-05T08:20:29;9.77;;;8.70;;
21593;SDS011;10959;51.328;7.322;2022-08-05T08:22:57;9.50;;;8.47;;
21593;SDS011;10959;51.328;7.322;2022-08-05T08:25:24;9.57;;;8.40;;
21593;SDS011;10959;51.328;7.322;2022-08-05T08:27:52;9.40;;;8.50;;
21593;SDS011;10959;51.328;7.322;2022-08-05T08:30:19;9.37;;;8.50;;
21593;SDS011;10959;51.328;7.322;2022-08-05T08:32:47;9.67;;;8.87;;
21593;SDS011;10959;51.328;7.322;2022-08-05T08:35:13;9.63;;;8.73;;
21593;SDS011;10959;51.328;7.322;2022-08-05T08:37:39;9.83;;;7.93;;
21593;SDS011;10959;51.328;7.322;2022-08-05T08:40:06;8.63;;;7.63;;
21593;SDS011;10959;51.328;7.322;2022-08-05T08:42:33;9.63;;;8.63;;
21593;SDS011;10959;51.328;7.322;2022-08-05T08:45:00;8.53;;;7.73;;
21593;SDS011;10959;51.328;7.322;2022-08-05T08:47:28;8.33;;;7.53;;
21593;SDS011;10959;51.328;7.322;2022-08-05T08:49:57;8.97;;;8.07;;
21593;SDS011;10959;51.328;7.322;2022-08-05T08:52:28;11.80;;;7.97;;
21593;SDS011;10959;51.328;7.322;2022-08-05T08:54:57;7.83;;;7.23;;
21593;SDS011;10959;51.328;7.322;2022-08-05T08:57:23;10.77;;;7.10;;
21593;SDS011;10959;51.328;7.322;2022-08-05T08:59:50;7.93;;;6.33;;
21593;SDS011;10959;51.328;7.322;2022-08-05T09:02:17;10.43;;;7.07;;
21593;SDS011;10959;51.328;7.322;2022-08-05T09:04:45;6.47;;;5.47;;
21593;SDS011;10959;51.328;7.322;2022-08-05T09:07:13;8.87;;;6.67;;
21593;SDS011;10959;51.328;7.322;2022-08-05T09:09:40;8.13;;;7.23;;
21593;SDS011;10959;51.328;7.322;2022-08-05T09:12:08;6.00;;;5.47;;
21593;SDS011;10959;51.328;7.322;2022-08-05T09:14:35;7.87;;;5.97;;
21593;SDS011;10959;51.328;7.322;2022-08-05T09:17:02;6.27;;;5.67;;
21593;SDS011;10959;51.328;7.322;2022-08-05T09:19:30;6.53;;;5.30;;
21593;SDS011;10959;51.328;7.322;2022-08-05T09:21:57;7.33;;;5.50;;
21593;SDS011;10959;51.328;7.322;2022-08-05T09:24:25;6.93;;;5.50;;
21593;SDS011;10959;51.328;7.322;2022-08-05T09:26:52;6.60;;;5.30;;
21593;SDS011;10959;51.328;7.322;2022-08-05T09:29:35;7.07;;;4.90;;
21593;SDS011;10959;51.328;7.322;2022-08-05T09:32:03;5.00;;;3.90;;
21593;SDS011;10959;51.328;7.322;2022-08-05T09:34:44;5.60;;;3.00;;
21593;SDS011;10959;51.328;7.322;2022-08-05T09:37:23;5.17;;;3.60;;
21593;SDS011;10959;51.328;7.322;2022-08-05T09:39:54;7.60;;;4.13;;
21593;SDS011;10959;51.328;7.322;2022-08-05T09:42:20;5.87;;;4.43;;
21593;SDS011;10959;51.328;7.322;2022-08-05T09:44:48;4.40;;;3.43;;
21593;SDS011;10959;51.328;7.322;2022-08-05T09:47:17;6.17;;;4.27;;
21593;SDS011;10959;51.328;7.322;2022-08-05T09:49:45;6.07;;;4.03;;
21593;SDS011;10959;51.328;7.322;2022-08-05T09:52:16;7.00;;;4.10;;
21593;SDS011;10959;51.328;7.322;2022-08-05T09:54:50;5.93;;;4.07;;
21593;SDS011;10959;51.328;7.322;2022-08-05T09:57:28;7.93;;;4.20;;
21593;SDS011;10959;51.328;7.322;2022-08-05T09:59:59;7.53;;;4.00;;
21593;SDS011;10959;51.328;7.322;2022-08-05T10:02:30;3.90;;;3.50;;
21593;SDS011;10959;51.328;7.322;2022-08-05T10:05:05;6.90;;;3.77;;
21593;SDS011;10959;51.328;7.322;2022-08-05T10:07:47;6.03;;;3.10;;
21593;SDS011;10959;51.328;7.322;2022-08-05T10:10:15;5.30;;;3.97;;
21593;SDS011;10959;51.328;7.322;2022-08-05T10:12:45;6.83;;;4.37;;
21593;SDS011;10959;51.328;7.322;2022-08-05T10:15:14;4.83;;;3.40;;
21593;SDS011;10959;51.328;7.322;2022-08-05T10:17:42;4.37;;;3.50;;
21593;SDS011;10959;51.328;7.322;2022-08-05T10:20:09;6.20;;;3.30;;
21593;SDS011;10959;51.328;7.322;2022-08-05T10:22:38;4.77;;;3.60;;
21593;SDS011;10959;51.328;7.322;2022-08-05T10:25:05;5.30;;;3.70;;
21593;SDS011;10959;51.328;7.322;2022-08-05T10:27:32;6.73;;;3.43;;
21593;SDS011;10959;51.328;7.322;2022-08-05T10:30:01;5.50;;;3.10;;
21593;SDS011;10959;51.328;7.322;2022-08-05T10:32:30;5.20;;;3.80;;
21593;SDS011;10959;51.328;7.322;2022-08-05T10:34:57;5.77;;;3.40;;
21593;SDS011;10959;51.328;7.322;2022-08-05T10:37:24;6.47;;;3.97;;
21593;SDS011;10959;51.328;7.322;2022-08-05T10:39:54;5.10;;;4.20;;
21593;SDS011;10959;51.328;7.322;2022-08-05T10:42:23;5.80;;;3.87;;
21593;SDS011;10959;51.328;7.322;2022-08-05T10:44:53;3.80;;;3.47;;
21593;SDS011;10959;51.328;7.322;2022-08-05T10:47:29;6.00;;;4.30;;
21593;SDS011;10959;51.328;7.322;2022-08-05T10:50:01;6.33;;;4.50;;
21593;SDS011;10959;51.328;7.322;2022-08-05T10:52:37;6.30;;;4.53;;
21593;SDS011;10959;51.328;7.322;2022-08-05T10:55:06;5.40;;;3.60;;
21593;SDS011;10959;51.328;7.322;2022-08-05T10:57:35;4.30;;;3.50;;
21593;SDS011;10959;51.328;7.322;2022-08-05T11:00:05;4.23;;;3.17;;
21593;SDS011;10959;51.328;7.322;2022-08-05T11:02:34;4.53;;;2.87;;
21593;SDS011;10959;51.328;7.322;2022-08-05T11:05:02;4.63;;;3.20;;
21593;SDS011;10959;51.328;7.322;2022-08-05T11:07:31;4.53;;;3.43;;
21593;SDS011;10959;51.328;7.322;2022-08-05T11:09:58;8.00;;;3.10;;
21593;SDS011;10959;51.328;7.322;2022-08-05T11:12:42;5.90;;;3.53;;
21593;SDS011;10959;51.328;7.322;2022-08-05T11:15:17;5.30;;;4.40;;
21593;SDS011;10959;51.328;7.322;2022-08-05T11:17:47;5.60;;;3.43;;
21593;SDS011;10959;51.328;7.322;2022-08-05T11:20:30;6.27;;;4.00;;
21593;SDS011;10959;51.328;7.322;2022-08-05T11:26:03;3.73;;;3.43;;
21593;SDS011;10959;51.328;7.322;2022-08-05T11:28:44;5.27;;;3.27;;
21593;SDS011;10959;51.328;7.322;2022-08-05T11:31:21;5.80;;;3.97;;
21593;SDS011;10959;51.328;7.322;2022-08-05T11:33:58;4.07;;;3.43;;
21593;SDS011;10959;51.328;7.322;2022-08-05T11:36:43;6.40;;;3.87;;
21593;SDS011;10959;51.328;7.322;2022-08-05T11:39:12;6.38;;;3.17;;
21593;SDS011;10959;51.328;7.322;2022-08-05T11:41:40;7.80;;;4.93;;
21593;SDS011;10959;51.328;7.322;2022-08-05T11:44:08;5.57;;;3.47;;
21593;SDS011;10959;51.328;7.322;2022-08-05T11:46:37;4.88;;;3.58;;
21593;SDS011;10959;51.328;7.322;2022-08-05T11:49:07;4.77;;;3.70;;
21593;SDS011;10959;51.328;7.322;2022-08-05T11:51:39;4.40;;;3.60;;
21593;SDS011;10959;51.328;7.322;2022-08-05T11:54:06;3.92;;;3.30;;
21593;SDS011;10959;51.328;7.322;2022-08-05T11:56:42;5.30;;;3.20;;
21593;SDS011;10959;51.328;7.322;2022-08-05T11:59:14;3.73;;;3.20;;
21593;SDS011;10959;51.328;7.322;2022-08-05T12:01:54;5.03;;;2.55;;
21593;SDS011;10959;51.328;7.322;2022-08-05T12:04:24;4.30;;;3.37;;
21593;SDS011;10959;51.328;7.322;2022-08-05T12:06:52;4.28;;;2.45;;
21593;SDS011;10959;51.328;7.322;2022-08-05T12:09:20;3.67;;;2.30;;
21593;SDS011;10959;51.328;7.322;2022-08-05T12:11:49;3.75;;;2.75;;
21593;SDS011;10959;51.328;7.322;2022-08-05T12:14:16;3.00;;;2.35;;
21593;SDS011;10959;51.328;7.322;2022-08-05T12:16:43;7.55;;;2.55;;
21593;SDS011;10959;51.328;7.322;2022-08-05T12:19:12;3.72;;;2.50;;
21593;SDS011;10959;51.328;7.322;2022-08-05T12:21:45;4.20;;;2.70;;
21593;SDS011;10959;51.328;7.322;2022-08-05T12:24:14;3.65;;;2.95;;
21593;SDS011;10959;51.328;7.322;2022-08-05T12:26:43;5.15;;;2.70;;
21593;SDS011;10959;51.328;7.322;2022-08-05T12:29:11;3.28;;;2.85;;
21593;SDS011;10959;51.328;7.322;2022-08-05T12:31:39;4.55;;;2.80;;
21593;SDS011;10959;51.328;7.322;2022-08-05T12:34:06;3.10;;;2.10;;
21593;SDS011;10959;51.328;7.322;2022-08-05T12:36:34;5.03;;;2.40;;
21593;SDS011;10959;51.328;7.322;2022-08-05T12:39:03;3.78;;;2.70;;
21593;SDS011;10959;51.328;7.322;2022-08-05T12:41:31;3.95;;;2.60;;
21593;SDS011;10959;51.328;7.322;2022-08-05T12:44:00;3.97;;;3.08;;
21593;SDS011;10959;51.328;7.322;2022-08-05T12:46:29;4.32;;;2.70;;
21593;SDS011;10959;51.328;7.322;2022-08-05T12:48:57;4.93;;;2.97;;
21593;SDS011;10959;51.328;7.322;2022-08-05T12:51:25;4.63;;;2.20;;
21593;SDS011;10959;51.328;7.322;2022-08-05T12:53:57;4.28;;;2.90;;
21593;SDS011;10959;51.328;7.322;2022-08-05T12:56:26;4.65;;;2.33;;
21593;SDS011;10959;51.328;7.322;2022-08-05T13:01:35;5.05;;;2.50;;
21593;SDS011;10959;51.328;7.322;2022-08-05T13:04:02;3.33;;;2.25;;
21593;SDS011;10959;51.328;7.322;2022-08-05T13:06:29;5.05;;;2.83;;
21593;SDS011;10959;51.328;7.322;2022-08-05T13:08:55;3.80;;;2.60;;
21593;SDS011;10959;51.328;7.322;2022-08-05T13:11:22;3.28;;;2.55;;
21593;SDS011;10959;51.328;7.322;2022-08-05T13:13:55;3.05;;;2.35;;
21593;SDS011;10959;51.328;7.322;2022-08-05T13:16:22;3.08;;;2.28;;
21593;SDS011;10959;51.328;7.322;2022-08-05T13:18:51;2.70;;;2.10;;
21593;SDS011;10959;51.328;7.322;2022-08-05T13:21:19;4.32;;;2.70;;
21593;SDS011;10959;51.328;7.322;2022-08-05T13:23:46;2.80;;;2.00;;
21593;SDS011;10959;51.328;7.322;2022-08-05T13:26:12;4.53;;;2.67;;
21593;SDS011;10959;51.328;7.322;2022-08-05T13:28:40;4.32;;;2.47;;
21593;SDS011;10959;51.328;7.322;2022-08-05T13:31:06;3.92;;;2.90;;
21593;SDS011;10959;51.328;7.322;2022-08-05T13:33:33;3.75;;;2.67;;
21593;SDS011;10959;51.328;7.322;2022-08-05T13:35:59;3.13;;;2.20;;
21593;SDS011;10959;51.328;7.322;2022-08-05T13:38:26;3.15;;;2.05;;
21593;SDS011;10959;51.328;7.322;2022-08-05T13:40:52;3.85;;;2.03;;
21593;SDS011;10959;51.328;7.322;2022-08-05T13:43:19;3.25;;;2.20;;
21593;SDS011;10959;51.328;7.322;2022-08-05T13:45:47;4.35;;;2.42;;
21593;SDS011;10959;51.328;7.322;2022-08-05T13:48:14;5.35;;;2.00;;
21593;SDS011;10959;51.328;7.322;2022-08-05T13:50:40;2.20;;;2.00;;
21593;SDS011;10959;51.328;7.322;2022-08-05T13:53:06;3.65;;;2.20;;
21593;SDS011;10959;51.328;7.322;2022-08-05T13:55:33;3.40;;;2.58;;
21593;SDS011;10959;51.328;7.322;2022-08-05T13:57:59;3.63;;;2.28;;
21593;SDS011;10959;51.328;7.322;2022-08-05T14:00:27;3.58;;;2.95;;
21593;SDS011;10959;51.328;7.322;2022-08-05T14:02:55;4.38;;;2.70;;
21593;SDS011;10959;51.328;7.322;2022-08-05T14:05:21;4.50;;;2.30;;
21593;SDS011;10959;51.328;7.322;2022-08-05T14:07:47;3.85;;;2.80;;
21593;SDS011;10959;51.328;7.322;2022-08-05T14:10:18;3.95;;;2.63;;
21593;SDS011;10959;51.328;7.322;2022-08-05T14:12:47;3.33;;;2.90;;
21593;SDS011;10959;51.328;7.322;2022-08-05T14:15:13;3.42;;;3.13;;
21593;SDS011;10959;51.328;7.322;2022-08-05T14:17:40;4.30;;;2.90;;
21593;SDS011;10959;51.328;7.322;2022-08-05T14:20:09;3.47;;;3.17;;
21593;SDS011;10959;51.328;7.322;2022-08-05T14:22:36;4.32;;;3.00;;
21593;SDS011;10959;51.328;7.322;2022-08-05T14:25:03;5.13;;;2.85;;
21593;SDS011;10959;51.328;7.322;2022-08-05T14:27:30;4.30;;;2.85;;
21593;SDS011;10959;51.328;7.322;2022-08-05T14:29:56;4.13;;;2.55;;
21593;SDS011;10959;51.328;7.322;2022-08-05T14:32:23;5.28;;;2.47;;
21593;SDS011;10959;51.328;7.322;2022-08-05T14:34:49;3.35;;;2.40;;
21593;SDS011;10959;51.328;7.322;2022-08-05T14:37:17;2.92;;;2.10;;
21593;SDS011;10959;51.328;7.322;2022-08-05T14:39:44;2.90;;;1.70;;
21593;SDS011;10959;51.328;7.322;2022-08-05T14:42:10;2.78;;;1.42;;
21593;SDS011;10959;51.328;7.322;2022-08-05T14:44:36;2.78;;;1.50;;
21593;SDS011;10959;51.328;7.322;2022-08-05T14:47:03;2.50;;;1.50;;
21593;SDS011;10959;51.328;7.322;2022-08-05T14:49:30;1.90;;;1.23;;
21593;SDS011;10959;51.328;7.322;2022-08-05T14:51:56;2.08;;;1.35;;
21593;SDS011;10959;51.328;7.322;2022-08-05T14:54:24;2.33;;;1.10;;
21593;SDS011;10959;51.328;7.322;2022-08-05T14:56:50;2.50;;;1.00;;
21593;SDS011;10959;51.328;7.322;2022-08-05T14:59:17;2.00;;;1.20;;